Time;durP1;ratioP1;P1;durP2;ratioP2;P2;SDS_P1;SDS_P2;PMS_P1;PMS_P2;Temp;Humidity;BMP_temperature;BMP_pressure;BME280_temperature;BME280_humidity;BME280_pressure;Samples;Min_cycle;Max_cycle;Signal;HPM_P1;HPM_P2
2022/02/23 00:01:16;;;;;;;1.40;0.80;;;;;;;8.94;85.74;99157.75;5076974;28;41838;-89
2022/02/23 00:03:50;;;;;;;1.60;0.70;;;;;;;8.95;85.33;99161.22;5075829;28;41848;-83
2022/02/23 00:06:19;;;;;;;0.63;0.63;;;;;;;9.02;85.15;99176.69;5092599;28;42435;-82
2022/02/23 00:08:53;;;;;;;0.70;0.57;;;;;;;8.91;84.77;99168.44;5073911;28;39098;-78
2022/02/23 00:11:22;;;;;;;1.83;0.70;;;;;;;8.93;84.49;99190.38;5074365;28;42396;-80
2022/02/23 00:13:50;;;;;;;0.50;0.47;;;;;;;8.84;83.76;99201.41;5075338;28;43144;-85
2022/02/23 00:16:17;;;;;;;1.80;0.40;;;;;;;8.72;83.60;99191.44;5092473;28;42280;-83
2022/02/23 00:18:45;;;;;;;1.57;0.47;;;;;;;8.74;82.28;99216.00;5091013;28;39897;-92
2022/02/23 00:21:13;;;;;;;0.43;0.40;;;;;;;8.67;81.86;99219.00;5093048;28;43058;-88
2022/02/23 00:23:41;;;;;;;0.30;0.30;;;;;;;8.54;81.80;99208.16;5091280;28;42688;-83
2022/02/23 00:26:08;;;;;;;0.40;0.40;;;;;;;8.61;81.70;99230.72;5092001;28;42018;-78
2022/02/23 00:28:37;;;;;;;1.20;0.50;;;;;;;8.59;81.49;99237.84;5092017;28;40986;-83
2022/02/23 00:31:05;;;;;;;0.40;0.40;;;;;;;8.59;81.51;99245.78;5074315;28;42092;-78
2022/02/23 00:33:33;;;;;;;0.43;0.43;;;;;;;8.59;81.08;99243.13;5092129;28;42523;-85
2022/02/23 00:36:00;;;;;;;0.60;0.50;;;;;;;8.48;81.06;99234.88;5092182;28;42196;-86
2022/02/23 00:38:28;;;;;;;2.10;0.50;;;;;;;8.57;80.90;99255.56;5074325;28;38934;-84
2022/02/23 00:40:56;;;;;;;0.60;0.60;;;;;;;8.58;80.67;99262.53;5091232;28;41804;-84
2022/02/23 00:43:25;;;;;;;0.50;0.50;;;;;;;8.59;80.64;99264.25;5073653;28;42981;-81
2022/02/23 00:45:54;;;;;;;0.60;0.60;;;;;;;8.58;80.63;99262.53;5074142;28;43311;-79
2022/02/23 00:48:21;;;;;;;0.80;0.43;;;;;;;8.60;80.21;99276.53;5073348;28;40270;-81
2022/02/23 00:50:49;;;;;;;0.40;0.40;;;;;;;8.62;80.26;99280.81;5090924;28;40651;-80
2022/02/23 00:53:17;;;;;;;0.77;0.77;;;;;;;8.62;80.37;99296.66;5091615;28;43302;-84
2022/02/23 00:55:45;;;;;;;0.93;0.50;;;;;;;8.62;80.17;99306.34;5091097;28;41941;-82
2022/02/23 00:58:12;;;;;;;0.40;0.40;;;;;;;8.59;80.37;99309.13;5090841;28;41113;-84
2022/02/23 01:00:40;;;;;;;0.70;0.60;;;;;;;8.60;80.23;99324.91;5073814;28;40941;-80
2022/02/23 01:03:09;;;;;;;1.67;0.47;;;;;;;8.63;80.38;99329.19;5090536;28;42812;-83
2022/02/23 01:05:37;;;;;;;1.40;0.47;;;;;;;8.62;80.03;99332.75;5090715;28;44102;-84
2022/02/23 01:08:11;;;;;;;0.43;0.43;;;;;;;8.60;79.89;99329.34;5073353;28;39337;-80
2022/02/23 01:10:38;;;;;;;1.30;0.60;;;;;;;8.60;79.97;99339.88;5091010;28;41544;-82
2022/02/23 01:13:06;;;;;;;1.27;0.70;;;;;;;8.58;80.17;99347.03;5090259;28;42789;-81
2022/02/23 01:15:34;;;;;;;0.53;0.33;;;;;;;8.56;80.12;99352.38;5090596;28;42334;-82
2022/02/23 01:18:02;;;;;;;2.97;1.17;;;;;;;8.44;80.06;99339.75;5090412;28;39723;-82
2022/02/23 01:20:32;;;;;;;0.67;0.50;;;;;;;8.45;79.66;99352.00;5073461;28;42476;-85
2022/02/23 01:22:59;;;;;;;0.40;0.40;;;;;;;8.40;80.06;99353.16;5080920;28;41429;-84
2022/02/23 01:25:29;;;;;;;0.40;0.40;;;;;;;8.24;79.98;99338.00;5060795;28;43161;-82
2022/02/23 01:27:57;;;;;;;0.50;0.50;;;;;;;8.23;80.05;99357.38;5074562;28;41026;-80
2022/02/23 01:30:24;;;;;;;0.87;0.67;;;;;;;8.14;80.13;99355.16;5074225;28;41829;-81
2022/02/23 01:32:58;;;;;;;3.27;0.87;;;;;;;8.04;80.38;99361.75;5107575;28;41736;-82
2022/02/23 01:35:26;;;;;;;0.97;0.60;;;;;;;7.96;80.52;99363.88;5074991;28;42013;-81
2022/02/23 01:37:56;;;;;;;1.80;0.60;;;;;;;7.92;80.33;99373.69;5073232;28;39998;-80
2022/02/23 01:40:30;;;;;;;2.43;0.90;;;;;;;7.76;80.86;99359.47;5087178;28;42711;-84
2022/02/23 01:42:57;;;;;;;2.40;0.70;;;;;;;7.77;80.96;99373.53;5074822;28;42882;-80
2022/02/23 01:45:26;;;;;;;0.50;0.50;;;;;;;7.74;80.82;99386.81;5075107;28;42118;-78
2022/02/23 01:48:00;;;;;;;1.60;0.70;;;;;;;7.68;81.01;99392.34;5071275;28;40774;-82
2022/02/23 01:50:28;;;;;;;0.60;0.33;;;;;;;7.63;81.35;99392.56;5072182;28;42352;-84
2022/02/23 01:53:02;;;;;;;1.40;0.60;;;;;;;7.54;81.13;99383.22;5056634;28;43159;-81
2022/02/23 01:55:30;;;;;;;1.90;0.70;;;;;;;7.55;80.97;99398.13;5073884;28;42460;-86
2022/02/23 01:57:57;;;;;;;1.40;0.60;;;;;;;7.47;80.93;99400.22;5078768;28;39920;-84
2022/02/23 02:00:31;;;;;;;0.30;0.30;;;;;;;7.42;81.19;99410.09;5093821;28;42694;-82
2022/02/23 02:03:00;;;;;;;1.43;0.73;;;;;;;7.36;80.65;99423.53;5094049;28;42583;-85
2022/02/23 02:05:27;;;;;;;1.03;0.47;;;;;;;7.28;80.82;99423.00;5093481;28;42968;-82
2022/02/23 02:07:54;;;;;;;3.00;0.70;;;;;;;7.22;80.86;99433.75;5077613;28;39993;-83
2022/02/23 02:10:24;;;;;;;4.90;0.60;;;;;;;7.09;80.37;99432.53;5074826;28;41938;-78
2022/02/23 02:12:58;;;;;;;2.30;0.50;;;;;;;7.07;80.53;99444.88;5072416;28;43596;-86
2022/02/23 02:15:25;;;;;;;1.20;0.70;;;;;;;7.00;80.41;99454.81;5085085;28;41145;-82
2022/02/23 02:17:53;;;;;;;3.23;0.60;;;;;;;6.94;80.50;99459.44;5093627;28;39057;-79
2022/02/23 02:20:21;;;;;;;1.27;0.70;;;;;;;6.87;80.34;99469.34;5076890;28;40541;-79
2022/02/23 02:22:50;;;;;;;1.73;0.47;;;;;;;6.81;80.35;99480.97;5092645;28;41795;-83
2022/02/23 02:25:18;;;;;;;3.43;0.93;;;;;;;6.75;80.32;99481.22;5073125;28;44546;-82
2022/02/23 02:27:45;;;;;;;3.13;0.63;;;;;;;6.69;80.33;99486.69;5056227;28;40043;-84
2022/02/23 02:30:13;;;;;;;0.47;0.47;;;;;;;6.62;80.56;99485.19;5073272;28;42687;-78
2022/02/23 02:32:41;;;;;;;1.83;0.53;;;;;;;6.58;80.41;99496.75;5072583;28;43681;-81
2022/02/23 02:35:09;;;;;;;2.13;1.10;;;;;;;6.53;80.64;99496.06;5054959;28;41150;-78
2022/02/23 02:37:37;;;;;;;3.53;0.70;;;;;;;6.46;80.60;99499.81;5072929;28;41179;-84
2022/02/23 02:40:08;;;;;;;0.57;0.47;;;;;;;6.42;80.58;99498.22;5056267;28;40823;-76
2022/02/23 02:42:35;;;;;;;4.97;0.80;;;;;;;6.30;80.98;99489.00;5077997;28;41792;-80
2022/02/23 02:45:03;;;;;;;4.57;0.77;;;;;;;6.35;80.77;99508.09;5093263;28;43250;-78
2022/02/23 02:47:31;;;;;;;2.23;0.40;;;;;;;6.31;80.80;99513.50;5094464;28;39925;-82
2022/02/23 02:49:59;;;;;;;4.40;1.10;;;;;;;6.20;80.77;99507.75;5092984;28;41809;-83
2022/02/23 02:52:26;;;;;;;2.27;0.70;;;;;;;6.19;80.44;99516.56;5091040;28;41890;-78
2022/02/23 02:54:54;;;;;;;2.83;0.60;;;;;;;6.10;80.48;99512.47;5073164;28;41073;-79
2022/02/23 02:57:23;;;;;;;2.33;1.10;;;;;;;6.05;80.36;99519.69;5072882;28;40994;-78
2022/02/23 02:59:51;;;;;;;1.70;0.60;;;;;;;5.99;80.29;99531.25;5072278;28;42927;-82
2022/02/23 03:02:19;;;;;;;3.40;0.80;;;;;;;5.90;80.50;99531.56;5072349;28;42660;-82
2022/02/23 03:04:49;;;;;;;2.20;0.77;;;;;;;5.89;80.37;99540.34;5055595;28;41729;-83
2022/02/23 03:07:17;;;;;;;1.53;0.50;;;;;;;5.85;80.62;99536.06;5072363;28;41764;-80
2022/02/23 03:09:51;;;;;;;2.40;0.93;;;;;;;5.79;80.79;99541.53;5072505;28;43419;-83
2022/02/23 03:12:19;;;;;;;2.53;0.60;;;;;;;5.73;81.12;99542.56;5054898;28;41440;-80
2022/02/23 03:14:49;;;;;;;2.80;0.60;;;;;;;5.69;81.41;99543.56;5072395;28;41163;-81
2022/02/23 03:17:16;;;;;;;3.07;0.70;;;;;;;5.71;81.85;99548.78;5072236;28;40132;-86
2022/02/23 03:19:44;;;;;;;3.80;0.93;;;;;;;5.69;82.29;99554.06;5073704;28;42432;-82
2022/02/23 03:22:11;;;;;;;0.50;0.50;;;;;;;5.63;82.35;99553.44;5080549;28;43313;-78
2022/02/23 03:24:39;;;;;;;1.90;0.90;;;;;;;5.70;83.05;99566.31;5093644;28;42342;-80
2022/02/23 03:27:07;;;;;;;1.17;0.80;;;;;;;5.71;82.55;99577.69;5092914;28;41203;-82
2022/02/23 03:29:35;;;;;;;5.77;1.27;;;;;;;5.71;82.57;99575.91;5092787;28;40663;-80
2022/02/23 03:32:05;;;;;;;2.20;0.60;;;;;;;5.61;82.44;99565.75;5075251;28;42180;-83
2022/02/23 03:34:33;;;;;;;3.50;0.90;;;;;;;5.68;82.58;99588.31;5092584;28;43016;-85
2022/02/23 03:37:00;;;;;;;2.70;0.53;;;;;;;5.65;82.15;99586.63;5092397;28;40031;-83
2022/02/23 03:39:34;;;;;;;0.63;0.63;;;;;;;5.63;82.22;99592.84;5090741;28;41832;-82
2022/02/23 03:42:02;;;;;;;2.13;0.77;;;;;;;5.59;82.17;99599.09;5075020;28;41535;-80
2022/02/23 03:44:29;;;;;;;1.53;0.70;;;;;;;5.58;82.55;99602.63;5075297;28;43825;-80
2022/02/23 03:46:57;;;;;;;2.07;0.97;;;;;;;5.56;82.68;99599.19;5092373;28;41036;-83
2022/02/23 03:49:26;;;;;;;5.00;1.17;;;;;;;5.56;82.85;99609.72;5074479;28;42337;-82
2022/02/23 03:51:54;;;;;;;0.90;0.80;;;;;;;5.46;82.90;99589.84;5071937;28;43615;-79
2022/02/23 03:54:21;;;;;;;3.97;1.00;;;;;;;5.55;82.73;99608.00;5073125;28;42421;-82
2022/02/23 03:56:49;;;;;;;3.57;1.00;;;;;;;5.55;82.95;99618.50;5072366;28;40835;-83
2022/02/23 03:59:17;;;;;;;4.43;0.97;;;;;;;5.54;83.08;99624.66;5054849;28;42185;-80
2022/02/23 04:01:46;;;;;;;1.70;1.00;;;;;;;5.55;83.10;99621.13;5073092;28;42679;-82
2022/02/23 04:04:16;;;;;;;1.13;0.73;;;;;;;5.56;83.07;99621.09;5071639;28;43231;-82
2022/02/23 04:06:46;;;;;;;4.07;0.90;;;;;;;5.54;82.95;99616.78;5054955;28;39172;-81
2022/02/23 04:09:14;;;;;;;1.27;0.67;;;;;;;5.47;83.02;99620.47;5072084;28;41625;-79
2022/02/23 04:11:42;;;;;;;1.50;1.00;;;;;;;5.50;83.21;99630.91;5071679;28;41928;-82
2022/02/23 04:14:09;;;;;;;2.63;0.90;;;;;;;5.48;83.26;99635.34;5083730;28;42479;-82
2022/02/23 04:16:43;;;;;;;2.77;1.20;;;;;;;5.45;82.94;99632.78;5092015;28;40315;-80
2022/02/23 04:19:18;;;;;;;0.80;0.80;;;;;;;5.12;83.32;99598.72;5091806;28;40633;-84
2022/02/23 04:21:54;;;;;;;0.60;0.60;;;;;;;5.43;83.99;99645.13;5088437;28;42912;-80
2022/02/23 04:24:28;;;;;;;7.27;1.27;;;;;;;5.45;84.08;99645.91;5075098;28;41264;-79
2022/02/23 04:26:55;;;;;;;2.77;0.93;;;;;;;5.45;83.62;99648.53;5091844;28;40657;-78
2022/02/23 04:29:23;;;;;;;1.63;1.10;;;;;;;5.13;84.06;99595.19;5126076;27;42531;-78
2022/02/23 04:31:51;;;;;;;3.43;1.00;;;;;;;5.43;83.93;99656.50;5074838;28;44640;-80
2022/02/23 04:34:19;;;;;;;2.20;1.10;;;;;;;5.40;83.57;99660.06;5074382;28;42348;-78
2022/02/23 04:36:47;;;;;;;3.57;1.00;;;;;;;5.35;83.63;99667.19;5073840;28;41005;-78
2022/02/23 04:39:16;;;;;;;0.77;0.77;;;;;;;5.35;83.73;99668.97;5074343;28;42053;-79
2022/02/23 04:41:44;;;;;;;2.80;1.10;;;;;;;5.24;83.81;99658.78;5125540;27;42786;-80
2022/02/23 04:44:12;;;;;;;6.30;1.20;;;;;;;5.30;84.21;99676.13;5090639;28;41376;-80
2022/02/23 04:46:46;;;;;;;1.67;1.20;;;;;;;5.32;84.24;99679.56;5089345;28;40979;-82
2022/02/23 04:49:14;;;;;;;0.93;0.90;;;;;;;5.34;84.78;99688.25;5090590;28;41665;-79
2022/02/23 04:51:41;;;;;;;1.63;0.90;;;;;;;5.34;84.54;99673.34;5060246;28;42580;-80
2022/02/23 04:54:09;;;;;;;3.33;0.87;;;;;;;5.36;84.97;99671.56;5070901;28;41502;-78
2022/02/23 04:56:38;;;;;;;2.07;1.00;;;;;;;5.28;85.46;99663.03;5070480;28;39736;-81
2022/02/23 04:59:08;;;;;;;2.67;0.80;;;;;;;5.40;85.50;99683.72;5070532;28;40915;-82
2022/02/23 05:01:36;;;;;;;6.97;1.10;;;;;;;5.42;85.77;99696.81;5055178;28;43202;-80
2022/02/23 05:04:03;;;;;;;5.93;1.27;;;;;;;5.46;85.93;99700.19;5070649;28;42204;-78
2022/02/23 05:06:31;;;;;;;1.80;0.70;;;;;;;5.47;85.73;99705.41;5070394;28;41648;-80
2022/02/23 05:08:58;;;;;;;1.30;1.20;;;;;;;5.49;85.61;99713.25;5071289;28;41540;-79
2022/02/23 05:11:26;;;;;;;4.93;1.23;;;;;;;5.53;85.60;99720.13;5070264;28;43039;-79
2022/02/23 05:13:55;;;;;;;1.53;1.00;;;;;;;5.53;85.53;99725.41;5053363;28;44125;-82
2022/02/23 05:16:23;;;;;;;2.43;1.20;;;;;;;5.51;85.46;99729.81;5071633;28;41465;-83
2022/02/23 05:18:52;;;;;;;3.13;1.20;;;;;;;5.53;85.92;99742.03;5070784;28;41926;-81
2022/02/23 05:21:20;;;;;;;4.10;1.10;;;;;;;5.54;85.36;99748.13;5070867;28;42817;-85
2022/02/23 05:23:47;;;;;;;7.70;1.27;;;;;;;5.53;85.08;99741.16;5071553;28;43205;-82
2022/02/23 05:26:15;;;;;;;3.50;1.67;;;;;;;5.06;84.84;99682.94;5070244;28;39059;-82
2022/02/23 05:28:43;;;;;;;3.20;1.53;;;;;;;5.44;84.87;99751.94;5069422;28;40871;-82
2022/02/23 05:31:12;;;;;;;2.37;1.73;;;;;;;5.44;85.13;99768.53;5071445;28;41856;-83
2022/02/23 05:33:39;;;;;;;5.17;1.00;;;;;;;5.43;85.15;99771.22;5103940;28;42186;-81
2022/02/23 05:36:07;;;;;;;3.80;1.20;;;;;;;5.28;85.04;99746.22;5104539;28;41030;-79
2022/02/23 05:38:34;;;;;;;2.60;1.27;;;;;;;5.38;85.06;99774.81;5082386;28;40616;-81
2022/02/23 05:41:03;;;;;;;2.93;1.20;;;;;;;5.38;84.88;99790.56;5109796;28;41701;-80
2022/02/23 05:43:32;;;;;;;3.30;1.23;;;;;;;5.35;84.69;99792.41;5053245;28;42409;-82
2022/02/23 05:46:06;;;;;;;0.97;0.87;;;;;;;5.30;84.85;99792.56;5056553;28;38763;-77
2022/02/23 05:48:35;;;;;;;2.33;0.77;;;;;;;5.28;84.87;99794.34;5070003;28;41050;-79
2022/02/23 05:51:02;;;;;;;5.50;1.20;;;;;;;5.28;85.33;99794.34;5092965;28;42740;-80
2022/02/23 05:53:30;;;;;;;3.80;1.17;;;;;;;5.28;85.95;99794.34;5110934;28;42081;-82
2022/02/23 05:55:58;;;;;;;2.10;0.90;;;;;;;5.30;85.56;99803.06;5112305;28;41512;-79
2022/02/23 05:58:26;;;;;;;7.67;1.30;;;;;;;5.30;85.75;99803.06;5093713;28;43267;-83
2022/02/23 09:00:35;;;;;;;1.23;1.03;;;;;;;23.47;34.85;100116.47;5104842;27;20567;-87
2022/02/23 09:03:03;;;;;;;4.97;1.70;;;;;;;24.79;33.21;100162.09;5075022;28;39040;-89
2022/02/23 09:05:30;;;;;;;2.90;1.60;;;;;;;24.23;32.54;100171.31;5091526;28;42291;-87
2022/02/23 09:07:58;;;;;;;3.53;1.57;;;;;;;22.47;35.18;100146.56;5108160;28;43054;-87
2022/02/23 09:10:25;;;;;;;5.03;1.90;;;;;;;21.05;37.83;100138.50;5088490;28;42209;-81
2022/02/23 09:12:53;;;;;;;2.87;1.20;;;;;;;20.61;38.24;100134.19;5070991;28;41728;-81
2022/02/23 09:15:21;;;;;;;3.20;1.93;;;;;;;21.30;36.42;100157.00;5088644;28;41921;-83
2022/02/23 09:17:50;;;;;;;3.67;1.77;;;;;;;22.19;34.30;100163.53;5070961;28;42300;-85
2022/02/23 09:20:17;;;;;;;3.07;1.70;;;;;;;23.06;33.47;100169.06;5087875;28;42155;-83
2022/02/23 09:22:44;;;;;;;5.90;1.97;;;;;;;22.61;32.58;100174.16;5087763;28;40034;-85
2022/02/23 09:25:12;;;;;;;3.70;1.30;;;;;;;21.19;35.74;100159.78;5088998;28;41980;-83
2022/02/23 09:27:40;;;;;;;4.27;1.43;;;;;;;21.25;35.93;100150.31;5088987;28;43992;-84
2022/02/23 09:30:14;;;;;;;7.30;2.10;;;;;;;21.61;34.86;100143.56;5104623;28;41360;-84
2022/02/23 09:32:43;;;;;;;4.13;1.20;;;;;;;22.34;34.04;100156.75;5109243;28;40693;-82
2022/02/23 09:35:11;;;;;;;3.40;1.00;;;;;;;22.88;32.33;100169.75;5090730;28;41769;-80
2022/02/23 09:37:40;;;;;;;3.27;1.07;;;;;;;23.03;32.33;100156.69;5088081;28;42724;-80
2022/02/23 09:40:09;;;;;;;2.93;1.50;;;;;;;23.87;31.57;100168.44;5085702;28;43050;-78
2022/02/23 09:42:37;;;;;;;4.87;1.70;;;;;;;24.86;30.46;100180.25;5087782;28;40125;-83
2022/02/23 09:45:07;;;;;;;3.37;1.83;;;;;;;25.74;28.94;100183.88;5086886;28;42272;-86
2022/02/23 09:47:35;;;;;;;6.87;1.80;;;;;;;25.62;28.46;100193.31;5109375;28;43502;-82
2022/02/23 09:50:06;;;;;;;5.73;1.80;;;;;;;24.58;28.26;100193.03;5108086;28;42736;-83
2022/02/23 09:52:42;;;;;;;3.83;1.70;;;;;;;22.71;31.92;100165.06;5090395;28;39077;-80
2022/02/23 09:55:10;;;;;;;4.03;1.60;;;;;;;21.16;33.11;100162.69;5090165;28;40886;-83
2022/02/23 09:57:38;;;;;;;1.83;1.20;;;;;;;19.85;35.15;100151.22;5102652;28;43855;-81
2022/02/23 10:00:07;;;;;;;3.70;1.30;;;;;;;19.15;36.16;100129.88;5107598;28;43375;-83
2022/02/23 10:02:41;;;;;;;5.63;1.30;;;;;;;18.90;37.14;100099.56;5105572;28;40122;-85
2022/02/23 10:05:17;;;;;;;3.37;1.30;;;;;;;20.24;35.39;100142.59;5072733;28;40439;-88
2022/02/23 10:07:46;;;;;;;3.50;1.40;;;;;;;22.02;32.67;100162.34;5088124;28;42177;-81
2022/02/23 10:10:30;;;;;;;4.27;1.17;;;;;;;21.77;32.98;100169.03;5091078;28;42094;-86
2022/02/23 10:12:59;;;;;;;2.23;0.80;;;;;;;21.01;34.94;100140.63;5092083;28;39917;-81
2022/02/23 10:15:27;;;;;;;4.47;1.40;;;;;;;19.98;36.31;100122.34;5093207;28;40689;-86
2022/02/23 10:17:54;;;;;;;4.63;1.33;;;;;;;19.64;36.65;100145.72;5076512;28;41856;-82
2022/02/23 10:20:25;;;;;;;3.33;0.60;;;;;;;20.65;34.52;100141.03;5056294;28;41295;-82
2022/02/23 10:22:57;;;;;;;1.70;0.80;;;;;;;22.99;30.96;100173.34;5071605;28;39854;-84
2022/02/23 10:25:34;;;;;;;4.63;1.00;;;;;;;24.50;29.91;100183.97;5070598;28;41976;-85
2022/02/23 10:28:09;;;;;;;2.60;1.07;;;;;;;25.19;28.19;100186.88;5073190;28;42243;-83
2022/02/23 10:30:49;;;;;;;4.50;1.40;;;;;;;25.79;28.11;100181.56;5089628;28;43340;-84
2022/02/23 10:33:19;;;;;;;1.97;1.10;;;;;;;26.36;26.66;100206.28;5091533;28;39900;-86
2022/02/23 10:35:55;;;;;;;3.80;1.43;;;;;;;26.48;27.00;100186.78;5072785;28;42364;-83
2022/02/23 10:38:28;;;;;;;2.00;1.17;;;;;;;26.67;26.22;100212.84;5072001;28;45018;-84
2022/02/23 10:41:05;;;;;;;3.60;1.10;;;;;;;25.91;27.37;100188.41;5074797;28;42076;-82
2022/02/23 10:43:35;;;;;;;3.50;1.43;;;;;;;26.28;26.58;100185.38;5091112;28;40037;-84
2022/02/23 10:46:06;;;;;;;3.27;1.50;;;;;;;25.61;26.86;100188.91;5073136;28;41929;-86
2022/02/23 10:48:36;;;;;;;1.67;1.13;;;;;;;26.48;26.05;100194.09;5054531;28;41706;-84
2022/02/23 10:51:06;;;;;;;1.77;1.10;;;;;;;27.09;25.63;100201.03;5073514;28;42834;-84
2022/02/23 10:53:35;;;;;;;4.27;1.30;;;;;;;28.63;24.75;100203.44;5074377;28;39807;-83
2022/02/23 10:56:23;;;;;;;5.07;1.50;;;;;;;30.58;23.04;100212.56;5072927;28;41696;-84
2022/02/23 10:59:00;;;;;;;1.73;1.03;;;;;;;32.02;21.57;100202.09;5063495;28;42383;-85
2022/02/23 11:01:28;;;;;;;2.45;0.80;;;;;;;33.51;20.37;100219.53;5076424;28;41188;-88
2022/02/23 11:03:56;;;;;;;3.00;1.33;;;;;;;34.54;18.20;100226.13;5086139;28;39620;-81
2022/02/23 11:06:25;;;;;;;2.20;1.27;;;;;;;35.37;17.75;100220.59;5084497;28;41672;-84
2022/02/23 11:08:55;;;;;;;2.20;1.10;;;;;;;35.58;17.26;100225.75;5092204;28;44311;-83
2022/02/23 11:11:24;;;;;;;4.35;1.60;;;;;;;35.82;17.34;100218.56;5078847;28;41898;-81
2022/02/23 11:13:59;;;;;;;3.95;1.10;;;;;;;36.31;16.83;100223.13;5074577;28;40965;-83
2022/02/23 11:16:28;;;;;;;2.92;1.48;;;;;;;36.67;16.66;100214.81;5092197;28;40332;-85
2022/02/23 11:18:57;;;;;;;1.17;0.80;;;;;;;36.85;17.08;100213.09;5075483;28;43224;-85
2022/02/23 11:21:26;;;;;;;3.35;1.40;;;;;;;37.21;16.28;100204.75;5092020;28;42071;-83
2022/02/23 11:23:58;;;;;;;3.28;1.52;;;;;;;36.71;16.80;100189.53;5085686;28;39874;-86
2022/02/23 11:26:29;;;;;;;3.50;1.15;;;;;;;36.39;16.04;100206.25;5055691;28;41564;-89
2022/02/23 11:29:02;;;;;;;2.35;0.98;;;;;;;37.15;15.28;100202.03;5051370;28;41425;-83
2022/02/23 11:31:35;;;;;;;1.73;1.02;;;;;;;37.86;15.03;100196.41;5080270;28;42964;-82
2022/02/23 11:34:08;;;;;;;2.15;0.98;;;;;;;38.04;14.57;100181.59;5074587;28;40820;-82
2022/02/23 11:36:39;;;;;;;2.33;1.70;;;;;;;37.61;14.91;100179.19;5075120;28;40319;-84
2022/02/23 11:39:10;;;;;;;1.85;1.10;;;;;;;36.05;15.88;100184.78;5084359;28;41943;-86
2022/02/23 11:41:39;;;;;;;2.20;1.23;;;;;;;34.51;17.75;100155.03;5055169;28;42612;-87
2022/02/23 11:44:15;;;;;;;2.95;1.40;;;;;;;33.80;17.84;100136.66;5054304;28;38642;-83
2022/02/23 11:46:57;;;;;;;1.40;1.00;;;;;;;33.31;17.23;100150.03;5070203;28;42643;-87
2022/02/23 11:49:52;;;;;;;2.95;1.25;;;;;;;34.25;17.47;100150.47;5079280;28;42659;-85
2022/02/23 11:52:44;;;;;;;2.85;1.10;;;;;;;35.84;15.97;100161.28;5092728;28;42662;-84
2022/02/23 11:58:55;;;;;;;3.03;0.90;;;;;;;36.63;15.08;100163.91;5071283;28;42073;-89
2022/02/23 12:01:48;;;;;;;2.05;1.10;;;;;;;34.59;15.87;100152.03;5069363;28;42722;-86
2022/02/23 12:04:18;;;;;;;4.10;1.73;;;;;;;32.42;17.01;100144.75;5054031;28;40858;-79
2022/02/23 12:07:09;;;;;;;1.63;1.00;;;;;;;30.28;18.92;100129.72;5071299;28;41684;-83
2022/02/23 12:10:05;;;;;;;4.53;1.40;;;;;;;32.07;18.74;100111.06;5078435;28;42596;-84
2022/02/23 12:12:56;;;;;;;3.13;1.57;;;;;;;34.08;16.91;100127.28;5074628;28;43018;-81
2022/02/23 12:15:42;;;;;;;2.57;1.10;;;;;;;34.86;16.24;100119.72;5057970;28;41427;-84
2022/02/23 12:18:15;;;;;;;2.47;1.00;;;;;;;35.27;16.21;100121.94;5089050;28;40275;-92
2022/02/23 12:20:51;;;;;;;1.60;1.15;;;;;;;35.55;16.25;100114.03;5092464;28;40265;-83
2022/02/23 12:23:46;;;;;;;2.65;1.55;;;;;;;36.24;15.87;100115.59;5090637;28;43092;-85
2022/02/23 12:26:22;;;;;;;2.47;0.95;;;;;;;37.36;15.11;100115.84;5039207;28;40876;-88
2022/02/23 12:28:59;;;;;;;2.05;0.93;;;;;;;38.52;13.86;100127.81;5084894;28;39897;-80
2022/02/23 12:31:30;;;;;;;2.28;0.93;;;;;;;39.14;13.15;100101.84;5068648;28;41850;-83
2022/02/23 12:34:00;;;;;;;2.28;1.02;;;;;;;39.54;13.51;100111.91;5069997;28;42927;-85
2022/02/23 12:36:38;;;;;;;3.03;0.98;;;;;;;40.06;13.00;100126.22;5089464;28;41209;-82
2022/02/23 12:39:11;;;;;;;1.83;0.98;;;;;;;40.49;12.34;100130.97;5091062;28;39969;-82
2022/02/23 12:41:39;;;;;;;2.40;0.93;;;;;;;40.64;12.29;100105.28;5074470;28;41458;-84
2022/02/23 12:44:10;;;;;;;4.18;1.20;;;;;;;40.51;12.30;100073.22;5061142;28;42580;-85
2022/02/23 12:46:41;;;;;;;2.72;1.15;;;;;;;40.77;12.16;100099.34;5076821;28;41029;-83
2022/02/23 12:49:10;;;;;;;3.05;0.98;;;;;;;40.89;12.15;100102.78;5091343;28;39794;-89
2022/02/23 12:51:46;;;;;;;2.80;1.13;;;;;;;40.81;11.65;100103.25;5086637;28;41629;-86
2022/02/23 12:54:15;;;;;;;1.20;0.90;;;;;;;40.63;11.39;100106.38;5082364;28;41601;-84
2022/02/23 12:56:44;;;;;;;3.00;0.88;;;;;;;40.43;11.30;100098.66;5071107;28;41170;-85
2022/02/23 12:59:15;;;;;;;3.40;0.90;;;;;;;39.74;12.50;100089.16;5070356;28;40816;-84
2022/02/23 13:01:44;;;;;;;2.70;1.25;;;;;;;39.59;12.36;100075.06;5070747;28;40966;-92
2022/02/23 13:04:13;;;;;;;1.63;1.08;;;;;;;39.64;12.34;100075.16;5070710;28;44333;-85
2022/02/23 13:06:50;;;;;;;1.40;1.00;;;;;;;39.63;12.73;100065.16;5077843;28;42368;-84
2022/02/23 13:09:20;;;;;;;2.03;0.77;;;;;;;38.48;13.89;100052.69;5090889;28;39811;-86
2022/02/23 13:11:50;;;;;;;2.97;1.23;;;;;;;36.29;14.62;100043.19;5084017;28;41666;-83
2022/02/23 13:14:21;;;;;;;2.97;0.90;;;;;;;36.25;14.37;100047.47;5069646;28;41405;-86
2022/02/23 13:16:59;;;;;;;1.90;1.35;;;;;;;36.62;14.56;100037.13;5058238;28;40688;-84
2022/02/23 13:19:28;;;;;;;2.53;1.27;;;;;;;36.94;13.42;100051.53;5090877;28;40085;-82
2022/02/23 13:21:58;;;;;;;1.98;1.27;;;;;;;36.45;13.94;100053.56;5083845;28;41772;-83
2022/02/23 13:24:30;;;;;;;2.20;1.20;;;;;;;35.96;14.04;100044.47;5070334;28;43158;-82
2022/02/23 13:26:58;;;;;;;2.73;1.30;;;;;;;36.22;14.02;100042.44;5054764;28;43276;-82
2022/02/23 13:29:27;;;;;;;2.30;1.07;;;;;;;36.05;14.30;100046.88;5090111;28;39301;-82
2022/02/23 13:31:59;;;;;;;1.90;0.97;;;;;;;35.73;14.61;100044.31;5073963;28;42305;-83
2022/02/23 13:34:35;;;;;;;1.47;1.10;;;;;;;34.23;15.32;100015.94;5078627;28;42688;-84
2022/02/23 13:37:11;;;;;;;1.83;0.80;;;;;;;32.95;16.01;100019.50;5067197;28;42558;-84
2022/02/23 13:39:48;;;;;;;1.23;0.70;;;;;;;31.92;16.44;100022.66;5053156;28;40590;-83
2022/02/23 13:42:32;;;;;;;2.93;1.37;;;;;;;31.74;17.26;100009.53;5070498;28;41031;-84
2022/02/23 13:45:10;;;;;;;3.50;0.93;;;;;;;31.80;17.07;100002.38;5051969;28;44011;-81
2022/02/23 13:47:39;;;;;;;2.37;0.90;;;;;;;31.95;17.25;99981.16;5052937;28;42639;-79
2022/02/23 13:50:09;;;;;;;3.23;1.07;;;;;;;32.65;16.82;99993.50;5054042;28;39991;-84
2022/02/23 13:52:44;;;;;;;2.70;0.97;;;;;;;33.10;16.19;99986.31;5043907;28;43332;-83
2022/02/23 13:55:14;;;;;;;3.40;0.97;;;;;;;33.31;16.12;99987.97;5076497;28;41717;-82
2022/02/23 13:57:50;;;;;;;2.27;1.17;;;;;;;33.41;15.78;99982.88;5071084;28;42531;-85
2022/02/23 14:00:22;;;;;;;1.30;0.80;;;;;;;33.36;16.23;99964.31;5072520;28;39043;-82
2022/02/23 14:02:53;;;;;;;2.20;0.80;;;;;;;33.30;15.53;99969.81;5070404;28;42727;-81
2022/02/23 14:05:26;;;;;;;1.60;0.87;;;;;;;33.07;15.92;99965.63;5071908;28;42086;-85
2022/02/23 14:07:59;;;;;;;2.37;0.90;;;;;;;33.19;16.56;99958.41;5073950;28;41960;-81
2022/02/23 14:10:36;;;;;;;1.77;1.10;;;;;;;33.18;16.27;99967.72;5055999;28;39975;-81
2022/02/23 14:13:06;;;;;;;4.47;1.93;;;;;;;33.08;15.75;99975.56;5056385;28;43018;-83
2022/02/23 14:15:36;;;;;;;2.20;0.80;;;;;;;32.87;16.02;99959.34;5064491;28;42557;-82
2022/02/23 14:18:21;;;;;;;2.97;1.07;;;;;;;32.83;16.54;99963.56;5040348;28;42736;-82
2022/02/23 14:20:50;;;;;;;1.83;1.10;;;;;;;32.77;16.44;99958.91;5051810;28;39322;-81
2022/02/23 14:23:19;;;;;;;2.97;1.00;;;;;;;32.43;16.96;99930.63;5035952;28;40593;-84
2022/02/23 14:25:55;;;;;;;1.23;0.83;;;;;;;32.33;16.42;99956.78;5066656;28;43043;-83
2022/02/23 14:28:28;;;;;;;1.47;0.83;;;;;;;32.07;16.88;99946.59;5067758;28;41966;-83
2022/02/23 14:30:57;;;;;;;1.60;0.87;;;;;;;31.72;16.72;99946.72;5056341;28;39049;-81
2022/02/23 14:33:30;;;;;;;1.47;0.70;;;;;;;31.54;17.09;99948.31;5073327;28;41727;-83
2022/02/23 14:35:58;;;;;;;2.17;0.80;;;;;;;31.48;17.96;99930.81;5070729;28;42640;-84
2022/02/23 14:38:26;;;;;;;2.30;0.80;;;;;;;31.39;17.31;99932.06;5072158;28;43004;-83
2022/02/23 14:40:53;;;;;;;1.00;0.80;;;;;;;30.80;17.52;99927.03;5073253;28;40120;-83
2022/02/23 14:43:20;;;;;;;2.87;0.97;;;;;;;29.65;18.46;99926.38;5072280;28;40742;-82
2022/02/23 14:45:48;;;;;;;2.10;0.70;;;;;;;28.21;19.38;99915.84;5053941;28;43716;-83
2022/02/23 14:48:24;;;;;;;1.43;0.80;;;;;;;26.76;20.86;99896.53;5036657;28;40886;-82
2022/02/23 14:50:52;;;;;;;1.30;0.63;;;;;;;25.68;21.36;99900.47;5073328;28;40934;-81
2022/02/23 14:53:20;;;;;;;1.53;1.10;;;;;;;24.61;22.68;99878.47;5072537;28;41805;-84